sensor_id;sensor_type;location;lat;lon;timestamp;temperature;humidity
7232;DHT22;3657;49.630;11.018;2022-11-20T00:00:16;1.80;99.90
7232;DHT22;3657;49.630;11.018;2022-11-20T00:02:43;1.80;99.90
7232;DHT22;3657;49.630;11.018;2022-11-20T00:05:09;1.80;99.90
7232;DHT22;3657;49.630;11.018;2022-11-20T00:07:36;1.80;99.90
7232;DHT22;3657;49.630;11.018;2022-11-20T00:10:03;1.80;99.90
7232;DHT22;3657;49.630;11.018;2022-11-20T00:12:31;1.80;99.90
7232;DHT22;3657;49.630;11.018;2022-11-20T00:14:58;1.80;99.90
7232;DHT22;3657;49.630;11.018;2022-11-20T00:17:25;1.80;99.90
7232;DHT22;3657;49.630;11.018;2022-11-20T00:19:52;1.80;99.90
7232;DHT22;3657;49.630;11.018;2022-11-20T00:22:19;1.80;99.90
7232;DHT22;3657;49.630;11.018;2022-11-20T00:24:45;1.80;99.90
7232;DHT22;3657;49.630;11.018;2022-11-20T00:27:12;1.80;99.90
7232;DHT22;3657;49.630;11.018;2022-11-20T00:29:40;1.80;99.90
7232;DHT22;3657;49.630;11.018;2022-11-20T00:32:07;1.90;99.90
7232;DHT22;3657;49.630;11.018;2022-11-20T00:34:33;1.80;99.90
7232;DHT22;3657;49.630;11.018;2022-11-20T00:37:00;1.80;99.90
7232;DHT22;3657;49.630;11.018;2022-11-20T00:39:27;1.80;99.90
7232;DHT22;3657;49.630;11.018;2022-11-20T00:41:53;1.80;99.90
7232;DHT22;3657;49.630;11.018;2022-11-20T00:44:20;1.80;99.90
7232;DHT22;3657;49.630;11.018;2022-11-20T00:46:48;1.90;99.90
7232;DHT22;3657;49.630;11.018;2022-11-20T00:49:15;1.80;99.90
7232;DHT22;3657;49.630;11.018;2022-11-20T00:51:41;1.80;99.90
7232;DHT22;3657;49.630;11.018;2022-11-20T00:54:08;1.80;99.90
7232;DHT22;3657;49.630;11.018;2022-11-20T00:56:35;1.80;99.90
7232;DHT22;3657;49.630;11.018;2022-11-20T00:59:02;1.80;99.90
7232;DHT22;3657;49.630;11.018;2022-11-20T01:01:29;1.80;99.90
7232;DHT22;3657;49.630;11.018;2022-11-20T01:03:58;1.80;99.90
7232;DHT22;3657;49.630;11.018;2022-11-20T01:06:27;1.80;99.90
7232;DHT22;3657;49.630;11.018;2022-11-20T01:08:55;1.80;99.90
7232;DHT22;3657;49.630;11.018;2022-11-20T01:11:24;1.80;99.90
7232;DHT22;3657;49.630;11.018;2022-11-20T01:13:52;1.80;99.90
7232;DHT22;3657;49.630;11.018;2022-11-20T01:16:22;1.80;99.90
7232;DHT22;3657;49.630;11.018;2022-11-20T01:18:51;1.80;99.90
7232;DHT22;3657;49.630;11.018;2022-11-20T01:21:20;1.80;99.90
7232;DHT22;3657;49.630;11.018;2022-11-20T01:23:48;1.80;99.90
7232;DHT22;3657;49.630;11.018;2022-11-20T01:26:17;1.80;99.90
7232;DHT22;3657;49.630;11.018;2022-11-20T01:28:44;1.80;99.90
7232;DHT22;3657;49.630;11.018;2022-11-20T01:31:13;1.80;99.90
7232;DHT22;3657;49.630;11.018;2022-11-20T01:33:40;1.80;99.90
7232;DHT22;3657;49.630;11.018;2022-11-20T01:36:08;1.80;99.90
7232;DHT22;3657;49.630;11.018;2022-11-20T01:38:37;1.80;99.90
7232;DHT22;3657;49.630;11.018;2022-11-20T01:41:04;1.80;99.90
7232;DHT22;3657;49.630;11.018;2022-11-20T01:43:31;1.80;99.90
7232;DHT22;3657;49.630;11.018;2022-11-20T01:46:15;1.80;99.90
7232;DHT22;3657;49.630;11.018;2022-11-20T01:48:50;1.80;99.90
7232;DHT22;3657;49.630;11.018;2022-11-20T01:51:22;1.80;99.90
7232;DHT22;3657;49.630;11.018;2022-11-20T01:53:53;1.80;99.90
7232;DHT22;3657;49.630;11.018;2022-11-20T01:56:20;1.80;99.90
7232;DHT22;3657;49.630;11.018;2022-11-20T01:58:49;1.80;99.90
7232;DHT22;3657;49.630;11.018;2022-11-20T02:01:17;1.80;99.90
7232;DHT22;3657;49.630;11.018;2022-11-20T02:03:44;1.80;99.90
7232;DHT22;3657;49.630;11.018;2022-11-20T02:06:15;1.80;99.90
7232;DHT22;3657;49.630;11.018;2022-11-20T02:08:42;1.80;99.90
7232;DHT22;3657;49.630;11.018;2022-11-20T02:11:11;1.80;99.90
7232;DHT22;3657;49.630;11.018;2022-11-20T02:13:39;1.80;99.90
7232;DHT22;3657;49.630;11.018;2022-11-20T02:16:21;1.70;99.90
7232;DHT22;3657;49.630;11.018;2022-11-20T02:18:49;1.70;99.90
7232;DHT22;3657;49.630;11.018;2022-11-20T02:21:27;1.70;99.90
7232;DHT22;3657;49.630;11.018;2022-11-20T02:24:10;1.70;99.90
7232;DHT22;3657;49.630;11.018;2022-11-20T02:26:42;1.70;99.90
7232;DHT22;3657;49.630;11.018;2022-11-20T02:29:10;1.70;99.90
7232;DHT22;3657;49.630;11.018;2022-11-20T02:31:40;1.70;99.90
7232;DHT22;3657;49.630;11.018;2022-11-20T02:34:07;1.70;99.90
7232;DHT22;3657;49.630;11.018;2022-11-20T02:36:36;1.70;99.90
7232;DHT22;3657;49.630;11.018;2022-11-20T02:39:06;1.70;99.90
7232;DHT22;3657;49.630;11.018;2022-11-20T02:41:35;1.70;99.90
7232;DHT22;3657;49.630;11.018;2022-11-20T02:44:03;1.70;99.90
7232;DHT22;3657;49.630;11.018;2022-11-20T02:46:30;1.70;99.90
7232;DHT22;3657;49.630;11.018;2022-11-20T02:48:57;1.70;99.90
7232;DHT22;3657;49.630;11.018;2022-11-20T02:51:23;1.70;99.90
7232;DHT22;3657;49.630;11.018;2022-11-20T02:53:50;1.70;99.90
7232;DHT22;3657;49.630;11.018;2022-11-20T02:56:18;1.70;99.90
7232;DHT22;3657;49.630;11.018;2022-11-20T02:58:45;1.70;99.90
7232;DHT22;3657;49.630;11.018;2022-11-20T03:01:12;1.60;99.90
7232;DHT22;3657;49.630;11.018;2022-11-20T03:03:39;1.70;99.90
7232;DHT22;3657;49.630;11.018;2022-11-20T03:06:06;1.70;99.90
7232;DHT22;3657;49.630;11.018;2022-11-20T03:08:33;1.70;99.90
7232;DHT22;3657;49.630;11.018;2022-11-20T03:11:02;1.70;99.90
7232;DHT22;3657;49.630;11.018;2022-11-20T03:13:31;1.70;99.90
7232;DHT22;3657;49.630;11.018;2022-11-20T03:15:57;1.70;99.90
7232;DHT22;3657;49.630;11.018;2022-11-20T03:18:27;1.70;99.90
7232;DHT22;3657;49.630;11.018;2022-11-20T03:20:57;1.70;99.90
7232;DHT22;3657;49.630;11.018;2022-11-20T03:23:24;1.70;99.90
7232;DHT22;3657;49.630;11.018;2022-11-20T03:25:50;1.60;99.90
7232;DHT22;3657;49.630;11.018;2022-11-20T03:28:17;1.60;99.90
7232;DHT22;3657;49.630;11.018;2022-11-20T03:30:45;1.60;99.90
7232;DHT22;3657;49.630;11.018;2022-11-20T03:33:12;1.60;99.90
7232;DHT22;3657;49.630;11.018;2022-11-20T03:35:39;1.60;99.90
7232;DHT22;3657;49.630;11.018;2022-11-20T03:38:05;1.60;99.90
7232;DHT22;3657;49.630;11.018;2022-11-20T03:40:33;1.60;99.90
7232;DHT22;3657;49.630;11.018;2022-11-20T03:43:00;1.70;99.90
7232;DHT22;3657;49.630;11.018;2022-11-20T03:45:27;1.70;99.90
7232;DHT22;3657;49.630;11.018;2022-11-20T03:47:55;1.70;99.90
7232;DHT22;3657;49.630;11.018;2022-11-20T03:50:22;1.70;99.90
7232;DHT22;3657;49.630;11.018;2022-11-20T03:52:49;1.70;99.90
7232;DHT22;3657;49.630;11.018;2022-11-20T03:55:15;1.60;99.90
7232;DHT22;3657;49.630;11.018;2022-11-20T03:57:42;1.60;99.90
7232;DHT22;3657;49.630;11.018;2022-11-20T04:00:10;1.60;99.90
7232;DHT22;3657;49.630;11.018;2022-11-20T04:02:36;1.60;99.90
7232;DHT22;3657;49.630;11.018;2022-11-20T04:05:05;1.60;99.90
7232;DHT22;3657;49.630;11.018;2022-11-20T04:07:34;1.70;99.90
7232;DHT22;3657;49.630;11.018;2022-11-20T04:10:00;1.70;99.90
7232;DHT22;3657;49.630;11.018;2022-11-20T04:12:27;1.70;99.90
7232;DHT22;3657;49.630;11.018;2022-11-20T04:14:57;1.60;99.90
7232;DHT22;3657;49.630;11.018;2022-11-20T04:17:24;1.70;99.90
7232;DHT22;3657;49.630;11.018;2022-11-20T04:19:51;1.70;99.90
7232;DHT22;3657;49.630;11.018;2022-11-20T04:22:19;1.60;99.90
7232;DHT22;3657;49.630;11.018;2022-11-20T04:24:45;1.60;99.90
7232;DHT22;3657;49.630;11.018;2022-11-20T04:27:12;1.70;99.90
7232;DHT22;3657;49.630;11.018;2022-11-20T04:29:39;1.70;99.90
7232;DHT22;3657;49.630;11.018;2022-11-20T04:32:05;1.70;99.90
7232;DHT22;3657;49.630;11.018;2022-11-20T04:34:32;1.70;99.90
7232;DHT22;3657;49.630;11.018;2022-11-20T04:36:59;1.70;99.90
7232;DHT22;3657;49.630;11.018;2022-11-20T04:39:27;1.70;99.90
7232;DHT22;3657;49.630;11.018;2022-11-20T04:41:54;1.70;99.90
7232;DHT22;3657;49.630;11.018;2022-11-20T04:44:34;1.70;99.90
7232;DHT22;3657;49.630;11.018;2022-11-20T04:47:01;1.70;99.90
7232;DHT22;3657;49.630;11.018;2022-11-20T04:49:27;1.70;99.90
7232;DHT22;3657;49.630;11.018;2022-11-20T04:51:54;1.70;99.90
7232;DHT22;3657;49.630;11.018;2022-11-20T04:54:21;1.70;99.90
7232;DHT22;3657;49.630;11.018;2022-11-20T04:56:49;1.70;99.90
7232;DHT22;3657;49.630;11.018;2022-11-20T04:59:16;1.70;99.90
7232;DHT22;3657;49.630;11.018;2022-11-20T05:01:43;1.70;99.90
7232;DHT22;3657;49.630;11.018;2022-11-20T05:04:10;1.70;99.90
7232;DHT22;3657;49.630;11.018;2022-11-20T05:06:37;1.70;99.90
7232;DHT22;3657;49.630;11.018;2022-11-20T05:09:03;1.60;99.90
7232;DHT22;3657;49.630;11.018;2022-11-20T05:11:31;1.60;99.90
7232;DHT22;3657;49.630;11.018;2022-11-20T05:13:59;1.60;99.90
7232;DHT22;3657;49.630;11.018;2022-11-20T05:16:26;1.60;99.90
7232;DHT22;3657;49.630;11.018;2022-11-20T05:18:54;1.60;99.90
7232;DHT22;3657;49.630;11.018;2022-11-20T05:21:21;1.60;99.90
7232;DHT22;3657;49.630;11.018;2022-11-20T05:23:48;1.60;99.90
7232;DHT22;3657;49.630;11.018;2022-11-20T05:26:16;1.60;99.90
7232;DHT22;3657;49.630;11.018;2022-11-20T05:28:43;1.60;99.90
7232;DHT22;3657;49.630;11.018;2022-11-20T05:31:14;1.60;99.90
7232;DHT22;3657;49.630;11.018;2022-11-20T05:33:41;1.70;99.90
7232;DHT22;3657;49.630;11.018;2022-11-20T05:36:09;1.70;99.90
7232;DHT22;3657;49.630;11.018;2022-11-20T05:38:37;1.70;99.90
7232;DHT22;3657;49.630;11.018;2022-11-20T05:41:05;1.60;99.90
7232;DHT22;3657;49.630;11.018;2022-11-20T05:43:32;1.60;99.90
7232;DHT22;3657;49.630;11.018;2022-11-20T05:46:00;1.60;99.90
7232;DHT22;3657;49.630;11.018;2022-11-20T05:48:28;1.60;99.90
7232;DHT22;3657;49.630;11.018;2022-11-20T05:50:57;1.60;99.90
7232;DHT22;3657;49.630;11.018;2022-11-20T05:53:24;1.60;99.90
7232;DHT22;3657;49.630;11.018;2022-11-20T05:56:01;1.60;99.90
7232;DHT22;3657;49.630;11.018;2022-11-20T05:58:28;1.60;99.90
7232;DHT22;3657;49.630;11.018;2022-11-20T06:01:03;1.60;99.90
7232;DHT22;3657;49.630;11.018;2022-11-20T06:03:31;1.60;99.90
7232;DHT22;3657;49.630;11.018;2022-11-20T06:05:59;1.60;99.90
7232;DHT22;3657;49.630;11.018;2022-11-20T06:08:28;1.60;99.90
7232;DHT22;3657;49.630;11.018;2022-11-20T06:10:55;1.60;99.90
7232;DHT22;3657;49.630;11.018;2022-11-20T06:13:22;1.60;99.90
7232;DHT22;3657;49.630;11.018;2022-11-20T06:15:49;1.60;99.90
7232;DHT22;3657;49.630;11.018;2022-11-20T06:18:16;1.60;99.90
7232;DHT22;3657;49.630;11.018;2022-11-20T06:20:44;1.60;99.90
7232;DHT22;3657;49.630;11.018;2022-11-20T06:23:12;1.60;99.90
7232;DHT22;3657;49.630;11.018;2022-11-20T06:25:40;1.60;99.90
7232;DHT22;3657;49.630;11.018;2022-11-20T06:28:07;1.60;99.90
7232;DHT22;3657;49.630;11.018;2022-11-20T06:30:34;1.60;99.90
7232;DHT22;3657;49.630;11.018;2022-11-20T06:33:00;1.60;99.90
7232;DHT22;3657;49.630;11.018;2022-11-20T06:35:27;1.60;99.90
7232;DHT22;3657;49.630;11.018;2022-11-20T06:37:55;1.60;99.90
7232;DHT22;3657;49.630;11.018;2022-11-20T06:40:22;1.60;99.90
7232;DHT22;3657;49.630;11.018;2022-11-20T06:42:49;1.60;99.90
7232;DHT22;3657;49.630;11.018;2022-11-20T06:45:16;1.60;99.90
7232;DHT22;3657;49.630;11.018;2022-11-20T06:47:42;1.60;99.90
7232;DHT22;3657;49.630;11.018;2022-11-20T06:50:09;1.60;99.90
7232;DHT22;3657;49.630;11.018;2022-11-20T06:52:36;1.70;99.90
7232;DHT22;3657;49.630;11.018;2022-11-20T06:55:04;1.60;99.90
7232;DHT22;3657;49.630;11.018;2022-11-20T06:57:32;1.60;99.90
7232;DHT22;3657;49.630;11.018;2022-11-20T06:59:58;1.60;99.90
7232;DHT22;3657;49.630;11.018;2022-11-20T07:02:25;1.60;99.90
7232;DHT22;3657;49.630;11.018;2022-11-20T07:04:52;1.60;99.90
7232;DHT22;3657;49.630;11.018;2022-11-20T07:07:18;1.60;99.90
7232;DHT22;3657;49.630;11.018;2022-11-20T07:09:45;1.60;99.90
7232;DHT22;3657;49.630;11.018;2022-11-20T07:12:13;1.60;99.90
7232;DHT22;3657;49.630;11.018;2022-11-20T07:14:40;1.60;99.90
7232;DHT22;3657;49.630;11.018;2022-11-20T07:17:06;1.60;99.90
7232;DHT22;3657;49.630;11.018;2022-11-20T07:19:33;1.60;99.90
7232;DHT22;3657;49.630;11.018;2022-11-20T07:22:00;1.60;99.90
7232;DHT22;3657;49.630;11.018;2022-11-20T07:24:26;1.60;99.90
7232;DHT22;3657;49.630;11.018;2022-11-20T07:26:53;1.60;99.90
7232;DHT22;3657;49.630;11.018;2022-11-20T07:29:21;1.60;99.90
7232;DHT22;3657;49.630;11.018;2022-11-20T07:31:48;1.60;99.90
7232;DHT22;3657;49.630;11.018;2022-11-20T07:34:15;1.60;99.90
7232;DHT22;3657;49.630;11.018;2022-11-20T07:36:41;1.60;99.90
7232;DHT22;3657;49.630;11.018;2022-11-20T07:39:08;1.60;99.90
7232;DHT22;3657;49.630;11.018;2022-11-20T07:41:34;1.60;99.90
7232;DHT22;3657;49.630;11.018;2022-11-20T07:44:01;1.60;99.90
7232;DHT22;3657;49.630;11.018;2022-11-20T07:46:29;1.60;99.90
7232;DHT22;3657;49.630;11.018;2022-11-20T07:48:56;1.60;99.90
7232;DHT22;3657;49.630;11.018;2022-11-20T07:51:23;1.60;99.90
7232;DHT22;3657;49.630;11.018;2022-11-20T07:53:51;1.60;99.90
7232;DHT22;3657;49.630;11.018;2022-11-20T07:56:17;1.60;99.90
7232;DHT22;3657;49.630;11.018;2022-11-20T07:58:44;1.60;99.90
7232;DHT22;3657;49.630;11.018;2022-11-20T08:01:11;1.60;99.90
7232;DHT22;3657;49.630;11.018;2022-11-20T08:03:39;1.60;99.90
7232;DHT22;3657;49.630;11.018;2022-11-20T08:06:07;1.70;99.90
7232;DHT22;3657;49.630;11.018;2022-11-20T08:08:34;1.70;99.90
7232;DHT22;3657;49.630;11.018;2022-11-20T08:11:00;1.70;99.90
7232;DHT22;3657;49.630;11.018;2022-11-20T08:13:41;1.70;99.90
7232;DHT22;3657;49.630;11.018;2022-11-20T08:16:40;1.70;99.90
7232;DHT22;3657;49.630;11.018;2022-11-20T08:19:09;1.70;99.90
7232;DHT22;3657;49.630;11.018;2022-11-20T08:21:35;1.70;99.90
7232;DHT22;3657;49.630;11.018;2022-11-20T08:24:02;1.70;99.90
7232;DHT22;3657;49.630;11.018;2022-11-20T08:26:29;1.70;99.90
7232;DHT22;3657;49.630;11.018;2022-11-20T08:28:56;1.70;99.90
7232;DHT22;3657;49.630;11.018;2022-11-20T08:31:24;1.80;99.90
7232;DHT22;3657;49.630;11.018;2022-11-20T08:33:52;1.80;99.90
7232;DHT22;3657;49.630;11.018;2022-11-20T08:36:21;1.80;99.90
7232;DHT22;3657;49.630;11.018;2022-11-20T08:38:47;1.80;99.90
7232;DHT22;3657;49.630;11.018;2022-11-20T08:41:14;1.80;99.90
7232;DHT22;3657;49.630;11.018;2022-11-20T08:43:52;1.80;99.90
7232;DHT22;3657;49.630;11.018;2022-11-20T08:46:19;1.80;99.90
7232;DHT22;3657;49.630;11.018;2022-11-20T08:48:46;1.70;99.90
7232;DHT22;3657;49.630;11.018;2022-11-20T08:51:13;1.70;99.90
7232;DHT22;3657;49.630;11.018;2022-11-20T08:53:42;1.70;99.90
7232;DHT22;3657;49.630;11.018;2022-11-20T08:56:09;1.70;99.90
7232;DHT22;3657;49.630;11.018;2022-11-20T08:58:36;1.80;99.90
7232;DHT22;3657;49.630;11.018;2022-11-20T09:01:03;1.70;99.90
7232;DHT22;3657;49.630;11.018;2022-11-20T09:03:30;1.70;99.90
7232;DHT22;3657;49.630;11.018;2022-11-20T09:05:57;1.70;99.90
7232;DHT22;3657;49.630;11.018;2022-11-20T09:08:26;1.70;99.90
7232;DHT22;3657;49.630;11.018;2022-11-20T09:10:54;1.70;99.90
7232;DHT22;3657;49.630;11.018;2022-11-20T09:13:22;1.70;99.90
7232;DHT22;3657;49.630;11.018;2022-11-20T09:15:53;1.70;99.90
7232;DHT22;3657;49.630;11.018;2022-11-20T09:18:20;1.70;99.90
7232;DHT22;3657;49.630;11.018;2022-11-20T09:20:47;1.70;99.90
7232;DHT22;3657;49.630;11.018;2022-11-20T09:23:14;1.70;99.90
7232;DHT22;3657;49.630;11.018;2022-11-20T09:25:40;1.70;99.90
7232;DHT22;3657;49.630;11.018;2022-11-20T09:28:09;1.70;99.90
7232;DHT22;3657;49.630;11.018;2022-11-20T09:30:36;1.70;99.90
7232;DHT22;3657;49.630;11.018;2022-11-20T09:33:04;1.70;99.90
7232;DHT22;3657;49.630;11.018;2022-11-20T09:35:31;1.80;99.90
7232;DHT22;3657;49.630;11.018;2022-11-20T09:37:58;1.80;99.90
7232;DHT22;3657;49.630;11.018;2022-11-20T09:40:27;1.80;99.90
7232;DHT22;3657;49.630;11.018;2022-11-20T09:42:58;1.80;99.90
7232;DHT22;3657;49.630;11.018;2022-11-20T09:45:38;1.80;99.90
7232;DHT22;3657;49.630;11.018;2022-11-20T09:48:33;1.70;99.90
7232;DHT22;3657;49.630;11.018;2022-11-20T09:51:07;1.70;99.90
7232;DHT22;3657;49.630;11.018;2022-11-20T09:53:46;1.70;99.90
7232;DHT22;3657;49.630;11.018;2022-11-20T09:56:19;1.70;99.90
7232;DHT22;3657;49.630;11.018;2022-11-20T09:58:49;1.70;99.90
7232;DHT22;3657;49.630;11.018;2022-11-20T10:01:19;1.70;99.90
7232;DHT22;3657;49.630;11.018;2022-11-20T10:03:53;1.70;99.90
7232;DHT22;3657;49.630;11.018;2022-11-20T10:06:24;1.70;99.90
7232;DHT22;3657;49.630;11.018;2022-11-20T10:09:01;1.70;99.90
7232;DHT22;3657;49.630;11.018;2022-11-20T10:11:36;1.70;99.90
7232;DHT22;3657;49.630;11.018;2022-11-20T10:14:16;1.70;99.90
7232;DHT22;3657;49.630;11.018;2022-11-20T10:16:52;1.70;99.90
7232;DHT22;3657;49.630;11.018;2022-11-20T10:19:36;1.70;99.90
7232;DHT22;3657;49.630;11.018;2022-11-20T10:22:14;1.70;99.90
7232;DHT22;3657;49.630;11.018;2022-11-20T10:24:50;1.60;99.90
7232;DHT22;3657;49.630;11.018;2022-11-20T10:27:32;1.60;99.90
7232;DHT22;3657;49.630;11.018;2022-11-20T10:30:02;1.60;99.90
7232;DHT22;3657;49.630;11.018;2022-11-20T10:32:34;1.60;99.90
7232;DHT22;3657;49.630;11.018;2022-11-20T10:35:06;1.70;99.90
7232;DHT22;3657;49.630;11.018;2022-11-20T10:37:36;1.70;99.90
7232;DHT22;3657;49.630;11.018;2022-11-20T10:40:17;1.70;99.90
7232;DHT22;3657;49.630;11.018;2022-11-20T10:42:47;1.80;99.90
7232;DHT22;3657;49.630;11.018;2022-11-20T10:45:43;1.80;99.90
7232;DHT22;3657;49.630;11.018;2022-11-20T10:48:16;1.90;99.90
7232;DHT22;3657;49.630;11.018;2022-11-20T10:51:08;1.90;99.90
7232;DHT22;3657;49.630;11.018;2022-11-20T10:53:49;1.90;99.90
7232;DHT22;3657;49.630;11.018;2022-11-20T10:56:22;1.90;99.90
7232;DHT22;3657;49.630;11.018;2022-11-20T10:59:11;1.90;99.90
7232;DHT22;3657;49.630;11.018;2022-11-20T11:01:42;1.90;99.90
7232;DHT22;3657;49.630;11.018;2022-11-20T11:04:23;1.90;99.90
7232;DHT22;3657;49.630;11.018;2022-11-20T11:06:56;1.90;99.90
7232;DHT22;3657;49.630;11.018;2022-11-20T11:09:38;1.90;99.90
7232;DHT22;3657;49.630;11.018;2022-11-20T11:12:07;1.90;99.90
7232;DHT22;3657;49.630;11.018;2022-11-20T11:14:43;1.90;99.90
7232;DHT22;3657;49.630;11.018;2022-11-20T11:17:21;1.90;99.90
7232;DHT22;3657;49.630;11.018;2022-11-20T11:20:02;1.90;99.90
7232;DHT22;3657;49.630;11.018;2022-11-20T11:22:31;1.90;99.90
7232;DHT22;3657;49.630;11.018;2022-11-20T11:24:59;2.00;99.90
7232;DHT22;3657;49.630;11.018;2022-11-20T11:27:26;2.10;99.90
7232;DHT22;3657;49.630;11.018;2022-11-20T11:30:03;2.20;99.90
7232;DHT22;3657;49.630;11.018;2022-11-20T11:32:38;2.40;99.90
7232;DHT22;3657;49.630;11.018;2022-11-20T11:35:19;2.60;99.90
7232;DHT22;3657;49.630;11.018;2022-11-20T11:37:47;2.60;99.90
7232;DHT22;3657;49.630;11.018;2022-11-20T11:40:14;2.70;99.90
7232;DHT22;3657;49.630;11.018;2022-11-20T11:42:42;2.70;99.90
7232;DHT22;3657;49.630;11.018;2022-11-20T11:45:15;2.80;99.90
7232;DHT22;3657;49.630;11.018;2022-11-20T11:47:45;2.90;99.90
7232;DHT22;3657;49.630;11.018;2022-11-20T11:50:20;3.10;99.90
7232;DHT22;3657;49.630;11.018;2022-11-20T11:52:54;3.20;99.90
7232;DHT22;3657;49.630;11.018;2022-11-20T11:55:29;3.20;99.90
7232;DHT22;3657;49.630;11.018;2022-11-20T11:58:08;3.10;99.90
7232;DHT22;3657;49.630;11.018;2022-11-20T12:00:36;3.10;99.90
7232;DHT22;3657;49.630;11.018;2022-11-20T12:03:12;3.10;99.90
7232;DHT22;3657;49.630;11.018;2022-11-20T12:05:43;3.10;99.90
7232;DHT22;3657;49.630;11.018;2022-11-20T12:08:17;3.20;99.90
7232;DHT22;3657;49.630;11.018;2022-11-20T12:10:49;3.30;99.90
7232;DHT22;3657;49.630;11.018;2022-11-20T12:13:37;3.20;99.90
7232;DHT22;3657;49.630;11.018;2022-11-20T12:16:12;3.20;99.90
7232;DHT22;3657;49.630;11.018;2022-11-20T12:18:39;3.10;99.90
7232;DHT22;3657;49.630;11.018;2022-11-20T12:21:17;3.10;99.90
7232;DHT22;3657;49.630;11.018;2022-11-20T12:26:50;3.00;99.90
7232;DHT22;3657;49.630;11.018;2022-11-20T12:29:27;2.90;99.90
7232;DHT22;3657;49.630;11.018;2022-11-20T12:32:26;2.90;99.90
7232;DHT22;3657;49.630;11.018;2022-11-20T12:35:02;2.90;99.90
7232;DHT22;3657;49.630;11.018;2022-11-20T12:37:38;2.90;99.90
7232;DHT22;3657;49.630;11.018;2022-11-20T12:40:24;2.80;99.90
7232;DHT22;3657;49.630;11.018;2022-11-20T12:43:01;2.90;99.90
7232;DHT22;3657;49.630;11.018;2022-11-20T12:46:12;2.80;99.90
7232;DHT22;3657;49.630;11.018;2022-11-20T12:48:52;2.80;99.90
7232;DHT22;3657;49.630;11.018;2022-11-20T12:51:32;2.90;99.90
7232;DHT22;3657;49.630;11.018;2022-11-20T12:57:08;2.90;99.90
7232;DHT22;3657;49.630;11.018;2022-11-20T12:59:50;2.90;99.90
7232;DHT22;3657;49.630;11.018;2022-11-20T13:02:26;2.90;99.90
7232;DHT22;3657;49.630;11.018;2022-11-20T13:05:11;2.90;99.90
7232;DHT22;3657;49.630;11.018;2022-11-20T13:07:41;2.90;99.90
7232;DHT22;3657;49.630;11.018;2022-11-20T13:10:18;2.90;99.90
7232;DHT22;3657;49.630;11.018;2022-11-20T13:12:50;2.90;99.90
7232;DHT22;3657;49.630;11.018;2022-11-20T13:15:32;2.90;99.90
7232;DHT22;3657;49.630;11.018;2022-11-20T13:18:01;2.80;99.90
7232;DHT22;3657;49.630;11.018;2022-11-20T13:20:30;2.80;99.90
7232;DHT22;3657;49.630;11.018;2022-11-20T13:22:57;2.90;99.90
7232;DHT22;3657;49.630;11.018;2022-11-20T13:25:28;2.90;99.90
7232;DHT22;3657;49.630;11.018;2022-11-20T13:27:56;2.80;99.90
7232;DHT22;3657;49.630;11.018;2022-11-20T13:30:24;2.80;99.90
7232;DHT22;3657;49.630;11.018;2022-11-20T13:32:53;2.80;99.90
7232;DHT22;3657;49.630;11.018;2022-11-20T13:35:26;2.90;99.90
7232;DHT22;3657;49.630;11.018;2022-11-20T13:38:02;2.80;99.90
7232;DHT22;3657;49.630;11.018;2022-11-20T13:40:31;2.80;99.90
7232;DHT22;3657;49.630;11.018;2022-11-20T13:43:14;2.80;99.90
7232;DHT22;3657;49.630;11.018;2022-11-20T13:45:55;2.80;99.90
7232;DHT22;3657;49.630;11.018;2022-11-20T13:48:24;2.80;99.90
7232;DHT22;3657;49.630;11.018;2022-11-20T13:51:00;2.80;99.90
7232;DHT22;3657;49.630;11.018;2022-11-20T13:54:01;2.80;99.90
7232;DHT22;3657;49.630;11.018;2022-11-20T13:56:43;2.80;99.90
7232;DHT22;3657;49.630;11.018;2022-11-20T13:59:28;2.80;99.90
7232;DHT22;3657;49.630;11.018;2022-11-20T14:02:00;2.80;99.90
7232;DHT22;3657;49.630;11.018;2022-11-20T14:04:30;2.80;99.90
7232;DHT22;3657;49.630;11.018;2022-11-20T14:06:59;2.80;99.90
7232;DHT22;3657;49.630;11.018;2022-11-20T14:09:27;2.80;99.90
7232;DHT22;3657;49.630;11.018;2022-11-20T14:11:55;2.80;99.90
7232;DHT22;3657;49.630;11.018;2022-11-20T14:14:24;2.90;99.90
7232;DHT22;3657;49.630;11.018;2022-11-20T14:16:52;2.80;99.90
7232;DHT22;3657;49.630;11.018;2022-11-20T14:19:26;2.90;99.90
7232;DHT22;3657;49.630;11.018;2022-11-20T14:22:07;2.90;99.90
7232;DHT22;3657;49.630;11.018;2022-11-20T14:24:34;2.90;99.90
7232;DHT22;3657;49.630;11.018;2022-11-20T14:27:03;2.90;99.90
7232;DHT22;3657;49.630;11.018;2022-11-20T14:29:34;2.90;99.90
7232;DHT22;3657;49.630;11.018;2022-11-20T14:32:02;2.90;99.90
7232;DHT22;3657;49.630;11.018;2022-11-20T14:34:31;2.90;99.90
7232;DHT22;3657;49.630;11.018;2022-11-20T14:37:00;2.90;99.90
7232;DHT22;3657;49.630;11.018;2022-11-20T14:39:31;2.90;99.90
7232;DHT22;3657;49.630;11.018;2022-11-20T14:41:59;2.90;99.90
7232;DHT22;3657;49.630;11.018;2022-11-20T14:44:29;2.90;99.90
7232;DHT22;3657;49.630;11.018;2022-11-20T14:46:59;2.90;99.90
7232;DHT22;3657;49.630;11.018;2022-11-20T14:49:26;2.90;99.90
7232;DHT22;3657;49.630;11.018;2022-11-20T14:52:00;2.90;99.90
7232;DHT22;3657;49.630;11.018;2022-11-20T14:54:26;2.90;99.90
7232;DHT22;3657;49.630;11.018;2022-11-20T14:56:55;2.80;99.90
7232;DHT22;3657;49.630;11.018;2022-11-20T14:59:23;2.90;99.90
7232;DHT22;3657;49.630;11.018;2022-11-20T15:01:57;2.90;99.90
7232;DHT22;3657;49.630;11.018;2022-11-20T15:04:25;2.90;99.90
7232;DHT22;3657;49.630;11.018;2022-11-20T15:06:53;2.90;99.90
7232;DHT22;3657;49.630;11.018;2022-11-20T15:09:21;2.90;99.90
7232;DHT22;3657;49.630;11.018;2022-11-20T15:11:54;2.90;99.90
7232;DHT22;3657;49.630;11.018;2022-11-20T15:14:21;2.90;99.90
7232;DHT22;3657;49.630;11.018;2022-11-20T15:16:48;2.90;99.90
7232;DHT22;3657;49.630;11.018;2022-11-20T15:19:20;2.90;99.90
7232;DHT22;3657;49.630;11.018;2022-11-20T15:21:47;2.90;99.90
7232;DHT22;3657;49.630;11.018;2022-11-20T15:24:14;2.90;99.90
7232;DHT22;3657;49.630;11.018;2022-11-20T15:26:41;2.80;99.90
7232;DHT22;3657;49.630;11.018;2022-11-20T15:29:10;2.90;99.90
7232;DHT22;3657;49.630;11.018;2022-11-20T15:31:37;2.90;99.90
7232;DHT22;3657;49.630;11.018;2022-11-20T15:34:10;2.80;99.90
7232;DHT22;3657;49.630;11.018;2022-11-20T15:36:39;2.80;99.90
7232;DHT22;3657;49.630;11.018;2022-11-20T15:39:05;2.80;99.90
7232;DHT22;3657;49.630;11.018;2022-11-20T15:41:33;2.80;99.90
7232;DHT22;3657;49.630;11.018;2022-11-20T15:44:00;2.90;99.90
7232;DHT22;3657;49.630;11.018;2022-11-20T15:46:28;2.90;99.90
7232;DHT22;3657;49.630;11.018;2022-11-20T15:48:56;2.90;99.90
7232;DHT22;3657;49.630;11.018;2022-11-20T15:51:27;2.90;99.90
7232;DHT22;3657;49.630;11.018;2022-11-20T15:53:57;2.90;99.90
7232;DHT22;3657;49.630;11.018;2022-11-20T15:56:24;2.90;99.90
7232;DHT22;3657;49.630;11.018;2022-11-20T15:58:51;2.90;99.90
7232;DHT22;3657;49.630;11.018;2022-11-20T16:01:19;2.90;99.90
7232;DHT22;3657;49.630;11.018;2022-11-20T16:03:47;2.90;99.90
7232;DHT22;3657;49.630;11.018;2022-11-20T16:06:14;2.90;99.90
7232;DHT22;3657;49.630;11.018;2022-11-20T16:08:41;2.90;99.90
7232;DHT22;3657;49.630;11.018;2022-11-20T16:11:12;2.80;99.90
7232;DHT22;3657;49.630;11.018;2022-11-20T16:13:39;2.80;99.90
7232;DHT22;3657;49.630;11.018;2022-11-20T16:16:27;2.80;99.90
7232;DHT22;3657;49.630;11.018;2022-11-20T16:18:55;2.80;99.90
7232;DHT22;3657;49.630;11.018;2022-11-20T16:21:22;2.80;99.90
7232;DHT22;3657;49.630;11.018;2022-11-20T16:23:53;2.80;99.90
7232;DHT22;3657;49.630;11.018;2022-11-20T16:26:21;2.80;99.90